sensor_id;sensor_type;location;lat;lon;timestamp;pressure;altitude;pressure_sealevel;temperature;humidity
40946;BME280;55635;50.264;11.918;2023-01-26T00:01:47;96116.31;;;0.93;79.33
40946;BME280;55635;50.264;11.918;2023-01-26T00:04:28;96106.13;;;0.90;79.56
40946;BME280;55635;50.264;11.918;2023-01-26T00:07:09;96090.00;;;1.07;78.88
40946;BME280;55635;50.264;11.918;2023-01-26T00:09:50;96079.09;;;1.02;78.35
40946;BME280;55635;50.264;11.918;2023-01-26T00:12:31;96085.63;;;1.08;78.29
40946;BME280;55635;50.264;11.918;2023-01-26T00:15:12;96081.38;;;0.72;79.63
40946;BME280;55635;50.264;11.918;2023-01-26T00:17:53;96072.59;;;0.38;80.76
40946;BME280;55635;50.264;11.918;2023-01-26T00:20:33;96072.63;;;0.49;80.97
40946;BME280;55635;50.264;11.918;2023-01-26T00:23:14;96051.84;;;0.61;80.87
40946;BME280;55635;50.264;11.918;2023-01-26T00:25:56;96064.69;;;0.86;80.54
40946;BME280;55635;50.264;11.918;2023-01-26T00:28:36;96056.28;;;0.93;80.09
40946;BME280;55635;50.264;11.918;2023-01-26T00:31:20;96048.22;;;0.96;80.34
40946;BME280;55635;50.264;11.918;2023-01-26T00:34:02;96046.47;;;1.08;80.14
40946;BME280;55635;50.264;11.918;2023-01-26T00:36:43;96023.09;;;1.06;79.31
40946;BME280;55635;50.264;11.918;2023-01-26T00:39:23;96036.50;;;1.02;80.79
40946;BME280;55635;50.264;11.918;2023-01-26T00:42:04;96048.13;;;1.09;80.22
40946;BME280;55635;50.264;11.918;2023-01-26T00:44:53;96036.22;;;0.83;80.90
40946;BME280;55635;50.264;11.918;2023-01-26T00:47:34;96039.13;;;0.56;82.06
40946;BME280;55635;50.264;11.918;2023-01-26T00:50:15;96052.00;;;0.46;83.07
40946;BME280;55635;50.264;11.918;2023-01-26T00:52:56;96047.09;;;0.66;82.47
40946;BME280;55635;50.264;11.918;2023-01-26T00:55:38;96058.53;;;0.87;81.92
40946;BME280;55635;50.264;11.918;2023-01-26T00:58:20;96055.91;;;0.76;81.68
40946;BME280;55635;50.264;11.918;2023-01-26T01:01:01;96052.16;;;0.91;81.61
40946;BME280;55635;50.264;11.918;2023-01-26T01:03:42;96064.63;;;1.09;80.94
40946;BME280;55635;50.264;11.918;2023-01-26T01:06:23;96061.50;;;0.93;80.99
40946;BME280;55635;50.264;11.918;2023-01-26T01:09:04;96060.41;;;0.39;83.44
40946;BME280;55635;50.264;11.918;2023-01-26T01:11:45;96066.03;;;0.57;82.91
40946;BME280;55635;50.264;11.918;2023-01-26T01:14:28;96058.84;;;-0.11;85.29
40946;BME280;55635;50.264;11.918;2023-01-26T01:17:09;96065.91;;;-0.01;85.75
40946;BME280;55635;50.264;11.918;2023-01-26T01:19:50;96060.19;;;-0.06;85.33
40946;BME280;55635;50.264;11.918;2023-01-26T01:22:35;96065.75;;;0.14;85.46
40946;BME280;55635;50.264;11.918;2023-01-26T01:25:16;96067.50;;;0.13;85.24
40946;BME280;55635;50.264;11.918;2023-01-26T01:27:57;96060.88;;;0.09;85.74
40946;BME280;55635;50.264;11.918;2023-01-26T01:30:38;96066.19;;;0.08;85.99
40946;BME280;55635;50.264;11.918;2023-01-26T01:33:19;96060.34;;;0.04;85.96
40946;BME280;55635;50.264;11.918;2023-01-26T01:36:04;96069.50;;;0.33;84.64
40946;BME280;55635;50.264;11.918;2023-01-26T01:38:47;96049.72;;;0.66;83.03
40946;BME280;55635;50.264;11.918;2023-01-26T01:41:28;96047.50;;;0.83;82.08
40946;BME280;55635;50.264;11.918;2023-01-26T01:44:20;96052.97;;;0.91;81.84
40946;BME280;55635;50.264;11.918;2023-01-26T01:47:24;96053.97;;;1.13;80.99
40946;BME280;55635;50.264;11.918;2023-01-26T01:50:11;96053.81;;;1.14;80.68
40946;BME280;55635;50.264;11.918;2023-01-26T01:52:55;96049.34;;;1.27;79.86
40946;BME280;55635;50.264;11.918;2023-01-26T01:55:36;96050.03;;;1.29;79.57
40946;BME280;55635;50.264;11.918;2023-01-26T01:58:18;96038.88;;;1.27;79.35
40946;BME280;55635;50.264;11.918;2023-01-26T02:01:00;96034.59;;;1.26;79.26
40946;BME280;55635;50.264;11.918;2023-01-26T02:03:41;96032.81;;;1.27;78.91
40946;BME280;55635;50.264;11.918;2023-01-26T02:09:32;96027.25;;;1.31;78.76
40946;BME280;55635;50.264;11.918;2023-01-26T02:12:33;96027.03;;;1.34;78.72
40946;BME280;55635;50.264;11.918;2023-01-26T02:15:14;96020.13;;;1.33;78.48
40946;BME280;55635;50.264;11.918;2023-01-26T02:17:56;96027.00;;;1.23;78.43
40946;BME280;55635;50.264;11.918;2023-01-26T02:20:59;96010.63;;;1.21;78.63
40946;BME280;55635;50.264;11.918;2023-01-26T02:24:14;96010.88;;;1.40;78.18
40946;BME280;55635;50.264;11.918;2023-01-26T02:26:58;96012.75;;;1.38;77.86
40946;BME280;55635;50.264;11.918;2023-01-26T02:29:39;96005.75;;;1.39;77.67
40946;BME280;55635;50.264;11.918;2023-01-26T02:32:21;95998.78;;;1.06;78.45
40946;BME280;55635;50.264;11.918;2023-01-26T02:35:03;95990.22;;;1.15;78.63
40946;BME280;55635;50.264;11.918;2023-01-26T02:37:47;95984.50;;;1.32;78.13
40946;BME280;55635;50.264;11.918;2023-01-26T02:41:10;95983.09;;;1.17;79.13
40946;BME280;55635;50.264;11.918;2023-01-26T02:43:43;95979.53;;;0.85;79.94
40946;BME280;55635;50.264;11.918;2023-01-26T02:46:24;95971.44;;;0.66;80.50
40946;BME280;55635;50.264;11.918;2023-01-26T02:49:06;95970.75;;;0.86;80.97
40946;BME280;55635;50.264;11.918;2023-01-26T02:52:06;95967.69;;;1.03;79.42
40946;BME280;55635;50.264;11.918;2023-01-26T02:54:48;95968.22;;;0.62;80.96
40946;BME280;55635;50.264;11.918;2023-01-26T02:57:51;95950.88;;;0.39;82.04
40946;BME280;55635;50.264;11.918;2023-01-26T03:00:36;95952.06;;;0.35;82.93
40946;BME280;55635;50.264;11.918;2023-01-26T03:03:24;95948.41;;;0.03;84.00
40946;BME280;55635;50.264;11.918;2023-01-26T03:06:21;95948.59;;;0.23;83.41
40946;BME280;55635;50.264;11.918;2023-01-26T03:09:02;95958.44;;;0.31;82.46
40946;BME280;55635;50.264;11.918;2023-01-26T03:11:43;95956.84;;;0.63;81.30
40946;BME280;55635;50.264;11.918;2023-01-26T03:14:24;95956.50;;;0.90;80.17
40946;BME280;55635;50.264;11.918;2023-01-26T03:17:04;95959.47;;;1.07;79.53
40946;BME280;55635;50.264;11.918;2023-01-26T03:19:45;95957.00;;;0.84;79.63
40946;BME280;55635;50.264;11.918;2023-01-26T03:22:45;95950.38;;;0.34;81.48
40946;BME280;55635;50.264;11.918;2023-01-26T03:25:45;95960.25;;;0.30;82.14
40946;BME280;55635;50.264;11.918;2023-01-26T03:28:47;95948.28;;;0.04;83.44
40946;BME280;55635;50.264;11.918;2023-01-26T03:31:29;95956.75;;;-0.16;84.80
40946;BME280;55635;50.264;11.918;2023-01-26T03:34:10;95953.56;;;0.26;83.34
40946;BME280;55635;50.264;11.918;2023-01-26T03:36:52;95960.78;;;0.23;82.93
40946;BME280;55635;50.264;11.918;2023-01-26T03:39:34;95951.00;;;0.37;82.86
40946;BME280;55635;50.264;11.918;2023-01-26T03:42:35;95947.53;;;0.26;82.92
40946;BME280;55635;50.264;11.918;2023-01-26T03:45:34;95951.28;;;0.57;82.01
40946;BME280;55635;50.264;11.918;2023-01-26T03:48:37;95947.50;;;0.72;80.70
40946;BME280;55635;50.264;11.918;2023-01-26T03:51:37;95943.72;;;0.76;80.00
40946;BME280;55635;50.264;11.918;2023-01-26T03:54:36;95936.56;;;1.11;79.32
40946;BME280;55635;50.264;11.918;2023-01-26T03:57:36;95919.41;;;0.97;79.04
40946;BME280;55635;50.264;11.918;2023-01-26T04:00:17;95938.84;;;1.16;78.41
40946;BME280;55635;50.264;11.918;2023-01-26T04:02:59;95940.16;;;1.10;78.48
40946;BME280;55635;50.264;11.918;2023-01-26T04:05:59;95929.22;;;0.72;79.45
40946;BME280;55635;50.264;11.918;2023-01-26T04:09:02;95934.22;;;0.75;79.45
40946;BME280;55635;50.264;11.918;2023-01-26T04:11:43;95933.50;;;0.84;79.89
40946;BME280;55635;50.264;11.918;2023-01-26T04:14:24;95930.66;;;0.76;80.29
40946;BME280;55635;50.264;11.918;2023-01-26T04:17:25;95939.91;;;1.13;79.29
40946;BME280;55635;50.264;11.918;2023-01-26T04:20:24;95929.09;;;1.18;78.35
40946;BME280;55635;50.264;11.918;2023-01-26T04:23:24;95925.19;;;1.34;77.79
40946;BME280;55635;50.264;11.918;2023-01-26T04:26:06;95930.00;;;1.39;77.08
40946;BME280;55635;50.264;11.918;2023-01-26T04:28:47;95922.56;;;1.23;77.86
40946;BME280;55635;50.264;11.918;2023-01-26T04:31:28;95921.16;;;1.08;78.58
40946;BME280;55635;50.264;11.918;2023-01-26T04:34:13;95920.94;;;1.00;78.42
40946;BME280;55635;50.264;11.918;2023-01-26T04:36:55;95919.50;;;0.63;79.68
40946;BME280;55635;50.264;11.918;2023-01-26T04:39:39;95915.78;;;0.43;81.63
40946;BME280;55635;50.264;11.918;2023-01-26T04:42:21;95906.28;;;0.20;82.46
40946;BME280;55635;50.264;11.918;2023-01-26T04:45:05;95910.50;;;0.10;83.26
40946;BME280;55635;50.264;11.918;2023-01-26T04:47:46;95905.72;;;0.38;82.81
40946;BME280;55635;50.264;11.918;2023-01-26T04:50:29;95913.31;;;0.52;82.04
40946;BME280;55635;50.264;11.918;2023-01-26T04:53:10;95909.03;;;0.40;81.95
40946;BME280;55635;50.264;11.918;2023-01-26T04:55:52;95913.56;;;0.49;81.47
40946;BME280;55635;50.264;11.918;2023-01-26T04:58:34;95912.13;;;0.68;81.00
40946;BME280;55635;50.264;11.918;2023-01-26T05:01:15;95918.06;;;0.59;81.13
40946;BME280;55635;50.264;11.918;2023-01-26T05:04:01;95923.53;;;0.67;81.07
40946;BME280;55635;50.264;11.918;2023-01-26T05:06:43;95915.00;;;0.65;81.15
40946;BME280;55635;50.264;11.918;2023-01-26T05:09:25;95916.78;;;0.64;80.81
40946;BME280;55635;50.264;11.918;2023-01-26T05:12:23;95910.34;;;0.35;82.23
40946;BME280;55635;50.264;11.918;2023-01-26T05:15:28;95917.19;;;0.25;83.17
40946;BME280;55635;50.264;11.918;2023-01-26T05:18:42;95915.56;;;0.35;82.83
40946;BME280;55635;50.264;11.918;2023-01-26T05:21:58;95917.00;;;0.50;82.46
40946;BME280;55635;50.264;11.918;2023-01-26T05:24:40;95923.00;;;0.28;82.88
40946;BME280;55635;50.264;11.918;2023-01-26T05:27:37;95923.63;;;-0.03;84.42
40946;BME280;55635;50.264;11.918;2023-01-26T05:30:19;95927.28;;;-0.06;84.84
40946;BME280;55635;50.264;11.918;2023-01-26T05:33:03;95919.50;;;-0.29;86.00
40946;BME280;55635;50.264;11.918;2023-01-26T05:35:44;95931.59;;;-0.28;86.65
40946;BME280;55635;50.264;11.918;2023-01-26T05:38:26;95929.72;;;-0.15;85.97
40946;BME280;55635;50.264;11.918;2023-01-26T05:41:07;95930.28;;;0.01;85.52
40946;BME280;55635;50.264;11.918;2023-01-26T05:44:01;95937.69;;;0.18;84.12
40946;BME280;55635;50.264;11.918;2023-01-26T05:46:57;95935.78;;;0.20;84.17
40946;BME280;55635;50.264;11.918;2023-01-26T05:49:38;95941.59;;;0.24;84.27
40946;BME280;55635;50.264;11.918;2023-01-26T05:52:24;95939.91;;;0.12;84.62
40946;BME280;55635;50.264;11.918;2023-01-26T05:55:06;95936.50;;;0.22;84.31
40946;BME280;55635;50.264;11.918;2023-01-26T05:57:48;95935.31;;;0.15;84.40
40946;BME280;55635;50.264;11.918;2023-01-26T06:00:32;95925.25;;;-0.13;85.63
40946;BME280;55635;50.264;11.918;2023-01-26T06:03:21;95931.75;;;-0.42;87.76
40946;BME280;55635;50.264;11.918;2023-01-26T06:06:02;95941.28;;;-0.30;87.63
40946;BME280;55635;50.264;11.918;2023-01-26T06:08:51;95936.78;;;-0.05;86.75
40946;BME280;55635;50.264;11.918;2023-01-26T06:11:48;95941.81;;;-0.14;86.43
40946;BME280;55635;50.264;11.918;2023-01-26T06:14:39;95944.28;;;0.00;86.57
40946;BME280;55635;50.264;11.918;2023-01-26T06:17:27;95935.78;;;0.09;85.84
40946;BME280;55635;50.264;11.918;2023-01-26T06:20:12;95942.41;;;0.13;85.26
40946;BME280;55635;50.264;11.918;2023-01-26T06:22:59;95936.84;;;-0.17;86.36
40946;BME280;55635;50.264;11.918;2023-01-26T06:25:42;95941.22;;;0.06;86.79
40946;BME280;55635;50.264;11.918;2023-01-26T06:28:23;95947.16;;;0.19;86.09
40946;BME280;55635;50.264;11.918;2023-01-26T06:31:07;95934.28;;;0.40;84.63
40946;BME280;55635;50.264;11.918;2023-01-26T06:33:51;95952.81;;;0.48;84.32
40946;BME280;55635;50.264;11.918;2023-01-26T06:36:32;95956.72;;;0.53;83.78
40946;BME280;55635;50.264;11.918;2023-01-26T06:39:15;95955.78;;;0.66;82.67
40946;BME280;55635;50.264;11.918;2023-01-26T06:41:57;95954.81;;;0.55;82.75
40946;BME280;55635;50.264;11.918;2023-01-26T06:44:38;95952.91;;;0.46;83.21
40946;BME280;55635;50.264;11.918;2023-01-26T06:47:20;95951.97;;;0.36;83.46
40946;BME280;55635;50.264;11.918;2023-01-26T06:50:02;95953.63;;;0.48;83.12
40946;BME280;55635;50.264;11.918;2023-01-26T06:52:55;95950.91;;;0.50;83.21
40946;BME280;55635;50.264;11.918;2023-01-26T06:56:04;95944.78;;;0.16;84.00
40946;BME280;55635;50.264;11.918;2023-01-26T06:59:01;95938.06;;;-0.10;85.11
40946;BME280;55635;50.264;11.918;2023-01-26T07:02:18;95949.19;;;-0.08;85.38
40946;BME280;55635;50.264;11.918;2023-01-26T07:05:01;95940.34;;;-0.29;86.56
40946;BME280;55635;50.264;11.918;2023-01-26T07:07:42;95936.94;;;0.05;85.91
40946;BME280;55635;50.264;11.918;2023-01-26T07:10:23;95940.53;;;0.15;85.51
40946;BME280;55635;50.264;11.918;2023-01-26T07:13:05;95941.75;;;0.33;84.79
40946;BME280;55635;50.264;11.918;2023-01-26T07:15:49;95940.31;;;0.29;84.85
40946;BME280;55635;50.264;11.918;2023-01-26T07:18:30;95938.41;;;0.20;84.33
40946;BME280;55635;50.264;11.918;2023-01-26T07:21:17;95929.34;;;0.02;85.23
40946;BME280;55635;50.264;11.918;2023-01-26T07:23:58;95923.81;;;-0.17;86.27
40946;BME280;55635;50.264;11.918;2023-01-26T07:26:39;95926.22;;;-0.03;86.79
40946;BME280;55635;50.264;11.918;2023-01-26T07:29:21;95933.03;;;0.11;86.17
40946;BME280;55635;50.264;11.918;2023-01-26T07:32:02;95920.16;;;0.20;85.39
40946;BME280;55635;50.264;11.918;2023-01-26T07:34:43;95936.69;;;0.54;84.13
40946;BME280;55635;50.264;11.918;2023-01-26T07:37:28;95927.34;;;0.85;82.83
40946;BME280;55635;50.264;11.918;2023-01-26T07:40:10;95938.47;;;0.98;81.49
40946;BME280;55635;50.264;11.918;2023-01-26T07:42:51;95927.34;;;0.96;80.80
40946;BME280;55635;50.264;11.918;2023-01-26T07:45:54;95943.22;;;1.15;79.73
40946;BME280;55635;50.264;11.918;2023-01-26T07:48:35;95930.25;;;1.36;79.02
40946;BME280;55635;50.264;11.918;2023-01-26T07:51:16;95941.25;;;1.50;78.40
40946;BME280;55635;50.264;11.918;2023-01-26T07:53:57;95943.34;;;1.25;78.67
40946;BME280;55635;50.264;11.918;2023-01-26T07:56:39;95938.38;;;0.99;79.32
40946;BME280;55635;50.264;11.918;2023-01-26T07:59:21;95944.97;;;1.26;79.77
40946;BME280;55635;50.264;11.918;2023-01-26T08:02:02;95932.53;;;1.40;78.15
40946;BME280;55635;50.264;11.918;2023-01-26T08:04:43;95937.44;;;1.65;77.55
40946;BME280;55635;50.264;11.918;2023-01-26T08:07:24;95940.41;;;1.61;76.73
40946;BME280;55635;50.264;11.918;2023-01-26T08:10:06;95937.50;;;1.32;76.83
40946;BME280;55635;50.264;11.918;2023-01-26T08:12:47;95932.66;;;1.17;77.95
40946;BME280;55635;50.264;11.918;2023-01-26T08:15:28;95922.38;;;0.82;78.90
40946;BME280;55635;50.264;11.918;2023-01-26T08:18:09;95921.53;;;0.70;79.25
40946;BME280;55635;50.264;11.918;2023-01-26T08:20:52;95928.97;;;0.52;80.59
40946;BME280;55635;50.264;11.918;2023-01-26T08:23:33;95916.25;;;0.37;80.17
40946;BME280;55635;50.264;11.918;2023-01-26T08:26:14;95927.22;;;0.64;80.36
40946;BME280;55635;50.264;11.918;2023-01-26T08:28:57;95933.50;;;0.73;78.87
40946;BME280;55635;50.264;11.918;2023-01-26T08:31:39;95921.94;;;0.31;79.88
40946;BME280;55635;50.264;11.918;2023-01-26T08:34:19;95926.75;;;0.70;79.26
40946;BME280;55635;50.264;11.918;2023-01-26T08:37:05;95911.44;;;0.99;78.31
40946;BME280;55635;50.264;11.918;2023-01-26T08:39:49;95924.94;;;1.26;76.93
40946;BME280;55635;50.264;11.918;2023-01-26T08:42:30;95927.25;;;1.51;76.96
40946;BME280;55635;50.264;11.918;2023-01-26T08:45:11;95917.06;;;1.48;75.58
40946;BME280;55635;50.264;11.918;2023-01-26T08:47:52;95922.03;;;1.51;75.55
40946;BME280;55635;50.264;11.918;2023-01-26T08:50:33;95930.81;;;1.61;75.68
40946;BME280;55635;50.264;11.918;2023-01-26T08:53:14;95905.03;;;1.57;75.83
40946;BME280;55635;50.264;11.918;2023-01-26T08:55:54;95912.28;;;1.64;75.86
40946;BME280;55635;50.264;11.918;2023-01-26T08:58:36;95917.03;;;1.91;75.16
40946;BME280;55635;50.264;11.918;2023-01-26T09:01:17;95910.88;;;1.81;74.34
40946;BME280;55635;50.264;11.918;2023-01-26T09:03:58;95903.53;;;1.75;74.19
40946;BME280;55635;50.264;11.918;2023-01-26T09:06:40;95919.97;;;1.98;74.32
40946;BME280;55635;50.264;11.918;2023-01-26T09:09:21;95911.97;;;2.10;73.56
40946;BME280;55635;50.264;11.918;2023-01-26T09:12:02;95907.34;;;2.03;73.53
40946;BME280;55635;50.264;11.918;2023-01-26T09:14:44;95919.41;;;2.15;73.41
40946;BME280;55635;50.264;11.918;2023-01-26T09:17:25;95918.03;;;2.11;72.75
40946;BME280;55635;50.264;11.918;2023-01-26T09:20:06;95911.91;;;1.90;73.22
40946;BME280;55635;50.264;11.918;2023-01-26T09:22:48;95902.81;;;2.05;73.31
40946;BME280;55635;50.264;11.918;2023-01-26T09:25:29;95906.72;;;2.31;72.50
40946;BME280;55635;50.264;11.918;2023-01-26T09:28:10;95914.25;;;2.66;73.02
40946;BME280;55635;50.264;11.918;2023-01-26T09:30:51;95923.28;;;2.83;71.75
40946;BME280;55635;50.264;11.918;2023-01-26T09:33:33;95919.88;;;2.92;71.14
40946;BME280;55635;50.264;11.918;2023-01-26T09:36:14;95916.97;;;3.25;71.24
40946;BME280;55635;50.264;11.918;2023-01-26T09:38:54;95920.78;;;3.51;70.38
40946;BME280;55635;50.264;11.918;2023-01-26T09:41:57;95924.09;;;3.53;68.43
40946;BME280;55635;50.264;11.918;2023-01-26T09:48:30;95923.16;;;3.83;67.83
40946;BME280;55635;50.264;11.918;2023-01-26T09:54:48;95917.38;;;4.08;66.95
40946;BME280;55635;50.264;11.918;2023-01-26T10:00:29;95912.53;;;4.23;65.20
40946;BME280;55635;50.264;11.918;2023-01-26T10:03:44;95922.91;;;4.15;66.65
40946;BME280;55635;50.264;11.918;2023-01-26T10:06:29;95898.34;;;3.97;65.63
40946;BME280;55635;50.264;11.918;2023-01-26T10:09:36;95909.50;;;4.18;65.53
40946;BME280;55635;50.264;11.918;2023-01-26T10:12:31;95904.66;;;4.23;66.44
40946;BME280;55635;50.264;11.918;2023-01-26T10:15:26;95903.31;;;4.09;65.62
40946;BME280;55635;50.264;11.918;2023-01-26T10:18:21;95881.06;;;3.84;66.23
40946;BME280;55635;50.264;11.918;2023-01-26T10:21:05;95890.72;;;3.74;66.47
40946;BME280;55635;50.264;11.918;2023-01-26T10:23:48;95886.28;;;3.56;66.43
40946;BME280;55635;50.264;11.918;2023-01-26T10:26:32;95886.59;;;3.72;66.54
40946;BME280;55635;50.264;11.918;2023-01-26T10:29:14;95884.91;;;3.61;66.11
40946;BME280;55635;50.264;11.918;2023-01-26T10:31:58;95891.53;;;3.56;66.53
40946;BME280;55635;50.264;11.918;2023-01-26T10:34:39;95896.47;;;3.49;66.76
40946;BME280;55635;50.264;11.918;2023-01-26T10:37:27;95896.66;;;3.57;67.02
40946;BME280;55635;50.264;11.918;2023-01-26T10:40:09;95883.38;;;3.59;66.77
40946;BME280;55635;50.264;11.918;2023-01-26T10:42:57;95878.41;;;3.46;66.28
40946;BME280;55635;50.264;11.918;2023-01-26T10:45:45;95875.69;;;3.67;66.23
40946;BME280;55635;50.264;11.918;2023-01-26T10:48:26;95889.50;;;3.88;65.38
40946;BME280;55635;50.264;11.918;2023-01-26T10:51:31;95880.66;;;4.08;65.41
40946;BME280;55635;50.264;11.918;2023-01-26T10:54:26;95857.03;;;4.08;64.99
40946;BME280;55635;50.264;11.918;2023-01-26T10:57:28;95861.56;;;4.25;64.32
40946;BME280;55635;50.264;11.918;2023-01-26T11:00:27;95870.63;;;4.50;64.38
40946;BME280;55635;50.264;11.918;2023-01-26T11:03:18;95871.09;;;4.82;63.87
40946;BME280;55635;50.264;11.918;2023-01-26T11:06:12;95864.44;;;4.88;63.32
40946;BME280;55635;50.264;11.918;2023-01-26T11:09:26;95860.66;;;5.00;62.24
40946;BME280;55635;50.264;11.918;2023-01-26T11:12:17;95861.75;;;5.07;62.39
40946;BME280;55635;50.264;11.918;2023-01-26T11:15:03;95860.66;;;4.63;62.38
40946;BME280;55635;50.264;11.918;2023-01-26T11:18:09;95875.88;;;5.24;61.74
40946;BME280;55635;50.264;11.918;2023-01-26T11:20:56;95875.41;;;5.38;61.98
40946;BME280;55635;50.264;11.918;2023-01-26T11:33:12;95845.22;;;5.15;62.23
40946;BME280;55635;50.264;11.918;2023-01-26T11:39:57;95852.66;;;5.29;62.32
40946;BME280;55635;50.264;11.918;2023-01-26T11:46:50;95849.91;;;5.21;61.02
40946;BME280;55635;50.264;11.918;2023-01-26T11:50:18;95841.94;;;5.13;62.42
40946;BME280;55635;50.264;11.918;2023-01-26T11:59:42;95811.31;;;4.94;63.13
40946;BME280;55635;50.264;11.918;2023-01-26T12:02:36;95834.94;;;5.04;62.03
40946;BME280;55635;50.264;11.918;2023-01-26T12:05:39;95828.34;;;4.90;62.99
40946;BME280;55635;50.264;11.918;2023-01-26T12:08:42;95821.63;;;4.78;63.15
40946;BME280;55635;50.264;11.918;2023-01-26T12:11:41;95831.75;;;5.00;62.52
40946;BME280;55635;50.264;11.918;2023-01-26T12:14:50;95817.28;;;4.86;62.52
40946;BME280;55635;50.264;11.918;2023-01-26T12:20:59;95811.66;;;4.81;63.02
40946;BME280;55635;50.264;11.918;2023-01-26T12:24:02;95805.31;;;4.74;64.34
40946;BME280;55635;50.264;11.918;2023-01-26T12:26:47;95798.22;;;4.57;64.24
40946;BME280;55635;50.264;11.918;2023-01-26T12:29:49;95789.72;;;4.36;65.07
40946;BME280;55635;50.264;11.918;2023-01-26T12:32:32;95795.25;;;4.43;65.28
40946;BME280;55635;50.264;11.918;2023-01-26T12:35:14;95794.97;;;4.36;64.71
40946;BME280;55635;50.264;11.918;2023-01-26T12:38:22;95794.69;;;4.39;65.29
40946;BME280;55635;50.264;11.918;2023-01-26T12:44:46;95775.28;;;4.50;65.33
40946;BME280;55635;50.264;11.918;2023-01-26T12:50:46;95776.56;;;4.09;66.05
40946;BME280;55635;50.264;11.918;2023-01-26T12:53:44;95767.94;;;4.16;66.55
40946;BME280;55635;50.264;11.918;2023-01-26T12:56:49;95765.91;;;4.10;66.22
40946;BME280;55635;50.264;11.918;2023-01-26T12:59:34;95785.38;;;4.08;66.02
40946;BME280;55635;50.264;11.918;2023-01-26T13:02:31;95762.34;;;4.02;66.41
40946;BME280;55635;50.264;11.918;2023-01-26T13:11:53;95762.16;;;4.13;66.56
40946;BME280;55635;50.264;11.918;2023-01-26T13:14:58;95751.53;;;4.14;66.29
40946;BME280;55635;50.264;11.918;2023-01-26T13:17:48;95756.69;;;4.06;66.45
40946;BME280;55635;50.264;11.918;2023-01-26T13:20:46;95751.56;;;4.05;66.13
40946;BME280;55635;50.264;11.918;2023-01-26T13:34:59;95749.44;;;3.52;67.38
40946;BME280;55635;50.264;11.918;2023-01-26T13:38:03;95764.88;;;3.55;67.71
40946;BME280;55635;50.264;11.918;2023-01-26T13:40:48;95763.63;;;3.30;68.70
40946;BME280;55635;50.264;11.918;2023-01-26T13:43:36;95762.41;;;3.35;68.44
40946;BME280;55635;50.264;11.918;2023-01-26T13:46:37;95761.03;;;3.21;68.89
40946;BME280;55635;50.264;11.918;2023-01-26T13:49:43;95760.97;;;2.92;69.59
40946;BME280;55635;50.264;11.918;2023-01-26T13:52:26;95765.28;;;2.93;69.95
40946;BME280;55635;50.264;11.918;2023-01-26T13:55:24;95769.28;;;3.16;69.35
40946;BME280;55635;50.264;11.918;2023-01-26T13:58:14;95761.84;;;3.12;68.86
40946;BME280;55635;50.264;11.918;2023-01-26T14:01:06;95766.25;;;3.02;69.55
40946;BME280;55635;50.264;11.918;2023-01-26T14:04:06;95765.56;;;3.19;69.45
40946;BME280;55635;50.264;11.918;2023-01-26T14:07:07;95754.69;;;3.23;68.56
40946;BME280;55635;50.264;11.918;2023-01-26T14:09:53;95763.66;;;3.21;69.02
40946;BME280;55635;50.264;11.918;2023-01-26T14:12:42;95769.44;;;3.15;69.43
40946;BME280;55635;50.264;11.918;2023-01-26T14:15:27;95758.53;;;3.10;69.27
40946;BME280;55635;50.264;11.918;2023-01-26T14:18:21;95769.84;;;3.10;69.27
40946;BME280;55635;50.264;11.918;2023-01-26T14:21:12;95768.16;;;3.00;69.72
40946;BME280;55635;50.264;11.918;2023-01-26T14:23:55;95774.19;;;2.81;70.51
40946;BME280;55635;50.264;11.918;2023-01-26T14:26:40;95779.03;;;2.86;70.48
40946;BME280;55635;50.264;11.918;2023-01-26T14:29:25;95784.13;;;2.97;70.09
40946;BME280;55635;50.264;11.918;2023-01-26T14:32:14;95769.41;;;2.96;70.23
40946;BME280;55635;50.264;11.918;2023-01-26T14:35:00;95778.91;;;2.97;70.01
40946;BME280;55635;50.264;11.918;2023-01-26T14:37:40;95782.19;;;2.89;69.97
40946;BME280;55635;50.264;11.918;2023-01-26T14:40:23;95777.75;;;2.70;70.73
40946;BME280;55635;50.264;11.918;2023-01-26T14:43:05;95789.19;;;2.79;70.97
40946;BME280;55635;50.264;11.918;2023-01-26T14:46:09;95769.91;;;2.80;70.16
40946;BME280;55635;50.264;11.918;2023-01-26T14:52:23;95782.03;;;2.71;70.94
40946;BME280;55635;50.264;11.918;2023-01-26T14:55:33;95799.38;;;2.72;70.76
40946;BME280;55635;50.264;11.918;2023-01-26T14:58:30;95796.03;;;2.61;70.90
40946;BME280;55635;50.264;11.918;2023-01-26T15:01:24;95798.25;;;2.65;71.09
40946;BME280;55635;50.264;11.918;2023-01-26T15:07:37;95802.97;;;2.71;71.35
40946;BME280;55635;50.264;11.918;2023-01-26T15:16:13;95796.78;;;2.42;71.62
40946;BME280;55635;50.264;11.918;2023-01-26T15:19:04;95790.97;;;2.39;72.31
40946;BME280;55635;50.264;11.918;2023-01-26T15:21:49;95798.41;;;2.34;72.39
40946;BME280;55635;50.264;11.918;2023-01-26T15:24:30;95793.31;;;2.11;73.03
40946;BME280;55635;50.264;11.918;2023-01-26T15:27:11;95797.06;;;2.18;73.71
40946;BME280;55635;50.264;11.918;2023-01-26T15:29:57;95798.59;;;2.21;73.26
40946;BME280;55635;50.264;11.918;2023-01-26T15:32:39;95793.84;;;2.05;73.27
40946;BME280;55635;50.264;11.918;2023-01-26T15:35:29;95799.25;;;2.13;73.45
40946;BME280;55635;50.264;11.918;2023-01-26T15:38:12;95795.69;;;1.94;73.52
40946;BME280;55635;50.264;11.918;2023-01-26T15:40:53;95789.19;;;1.88;73.79
40946;BME280;55635;50.264;11.918;2023-01-26T15:43:34;95803.34;;;2.06;72.83
40946;BME280;55635;50.264;11.918;2023-01-26T15:46:15;95794.53;;;1.87;74.06
40946;BME280;55635;50.264;11.918;2023-01-26T15:48:56;95796.53;;;1.94;73.08
40946;BME280;55635;50.264;11.918;2023-01-26T15:51:37;95791.94;;;1.87;73.48
40946;BME280;55635;50.264;11.918;2023-01-26T15:54:19;95802.69;;;1.93;73.27
40946;BME280;55635;50.264;11.918;2023-01-26T15:57:00;95789.66;;;1.73;73.41
40946;BME280;55635;50.264;11.918;2023-01-26T15:59:41;95802.97;;;1.70;73.63
40946;BME280;55635;50.264;11.918;2023-01-26T16:02:22;95798.69;;;1.69;73.81
40946;BME280;55635;50.264;11.918;2023-01-26T16:05:03;95784.31;;;1.74;74.01